Hovedside
METAR-TAF:

METAR-TAF

Lufthavner :

Notodden, Norge

Notodden lufthavn

breddegrad: 59-34N, lengdegrad: 009-13E, høyde over havet: 19 m

Gjeldene værobservasjon

Denne rapporten ble laget for 38 minutter siden, klokken 07:50 UTC
Vind 2 kt fra skiftende retning
Temperatur -6°C
Luftfuktighet 93%
Trykk 1012 hPa
Sikt 10 km eller mer
Få skyer i en høyde av 1700 ft
Overskyet i en høyde av 2200 ft
regnbyger i nærheten

METAR: ENNO 220750Z VRB02KT 9999 VCSH FEW017 OVC022 M06/M07 Q1012

Tid: 09:28 (08:28 UTC)

Varsel

Denne rapporten ble laget for 3 timer og 28 minutter siden, klokken 05:00 UTC
Varsel gyldig fra 22. klokken 07 UTC til 22. klokken 15 UTC
Vind 5 kt fra skiftende retning
Sikt: 7000 m
Brutte skyer i en høyde av 2000 ft
lett snø
Midlertidig
fra 22. klokken 07 UTC til 22. klokken 15 UTC
Sikt: 1500 m
i en høyde av 600 ft
snø

TAF: ENNO 220500Z 2207/2215 VRB05KT 7000 -SN BKN020 TEMPO 2207/2215 1500 SN VV006

Værobservasjoner og værvarsel for over 4000 flyplasser (METAR- og TAF-rapporter).

Tilgjengelige stasjoner er representert av de røde og gule prikkene på kartet.

Hold musepekeren over prikken for å se navnet på stasjonen.

Klikk så for å se værobservasjoner og -varsler.

For å forandre kartet kan du klikke på den grønne knappen med svart kryss for å zoome inn, på den grønne knappen med strek for å zoome ut, eller på de grønne pilene for å se tilstøtende kart.


METAR-TAF: